Time;durP1;ratioP1;P1;durP2;ratioP2;P2;SDS_P1;SDS_P2;PMS_P1;PMS_P2;Temp;Humidity;BMP_temperature;BMP_pressure;BME280_temperature;BME280_humidity;BME280_pressure;Samples;Min_cycle;Max_cycle;Signal;HPM_P1;HPM_P2
2022/04/09 00:01:29;;;;;;;10.20;5.20;;;;;;;4.16;76.41;98192.33;109341;1275;22436;-59
2022/04/09 00:03:58;;;;;;;11.70;6.90;;;;;;;4.18;76.48;98193.27;109249;1275;138765;-59
2022/04/09 00:06:26;;;;;;;10.40;6.20;;;;;;;4.19;76.52;98191.61;109369;1274;22934;-59
2022/04/09 00:08:54;;;;;;;13.80;6.80;;;;;;;4.21;76.59;98192.06;109275;1276;138467;-59
2022/04/09 00:11:38;;;;;;;15.30;6.70;;;;;;;4.22;76.63;98191.37;109348;1275;22434;-59
2022/04/09 00:14:07;;;;;;;11.50;6.40;;;;;;;4.22;76.60;98183.98;109379;1274;22410;-59
2022/04/09 00:16:35;;;;;;;11.60;6.10;;;;;;;4.23;76.64;98179.36;109258;1276;139489;-55
2022/04/09 00:19:03;;;;;;;11.10;5.80;;;;;;;4.23;76.33;98176.95;109363;1275;22504;-55
2022/04/09 00:21:32;;;;;;;11.20;6.40;;;;;;;4.22;76.09;98178.17;109270;1275;138425;-55
2022/04/09 00:24:00;;;;;;;12.40;6.10;;;;;;;4.21;75.95;98179.98;109376;1275;22402;-55
2022/04/09 00:26:28;;;;;;;11.70;5.50;;;;;;;4.20;75.96;98179.27;109346;1275;23274;-55
2022/04/09 00:28:57;;;;;;;10.90;5.70;;;;;;;4.19;75.93;98178.83;109275;1276;141804;-55
2022/04/09 00:31:25;;;;;;;10.80;6.10;;;;;;;4.18;76.03;98173.86;109227;1275;22401;-55
2022/04/09 00:33:54;;;;;;;8.00;5.30;;;;;;;4.14;75.90;98177.38;109248;1275;138227;-55
2022/04/09 00:36:22;;;;;;;10.30;5.80;;;;;;;4.11;75.79;98183.75;109298;1277;23304;-55
2022/04/09 00:38:50;;;;;;;10.00;5.60;;;;;;;4.10;76.21;98191.65;109285;1276;138322;-56
2022/04/09 00:41:18;;;;;;;9.30;4.50;;;;;;;4.12;76.32;98192.39;109385;1275;22453;-55
2022/04/09 00:43:47;;;;;;;11.80;6.20;;;;;;;4.15;76.37;98198.58;109293;1275;23398;-55
2022/04/09 00:46:15;;;;;;;8.20;4.80;;;;;;;4.19;76.57;98197.48;109241;1274;137868;-58
2022/04/09 00:48:44;;;;;;;11.00;5.50;;;;;;;4.21;76.88;98200.69;109351;1276;23311;-59
2022/04/09 00:51:12;;;;;;;9.60;5.20;;;;;;;4.24;76.81;98195.83;109281;1275;137950;-59
2022/04/09 00:53:41;;;;;;;10.00;4.80;;;;;;;4.27;76.97;98189.95;109397;1275;22440;-59
2022/04/09 00:56:13;;;;;;;7.50;4.50;;;;;;;4.31;76.76;98188.86;109307;1276;22648;-59
2022/04/09 00:58:54;;;;;;;8.00;4.00;;;;;;;4.34;77.04;98189.69;109229;1275;138721;-59
2022/04/09 01:01:26;;;;;;;5.80;3.60;;;;;;;4.39;77.00;98178.00;109355;1275;23595;-59
2022/04/09 01:03:55;;;;;;;7.90;3.90;;;;;;;4.45;77.22;98175.29;109054;1276;138065;-59
2022/04/09 01:06:24;;;;;;;7.50;3.40;;;;;;;4.53;77.37;98173.43;109365;1275;23208;-59
2022/04/09 01:08:52;;;;;;;6.60;3.60;;;;;;;4.61;77.03;98167.48;109259;1274;138415;-59
2022/04/09 01:11:20;;;;;;;7.60;3.30;;;;;;;4.69;77.04;98168.55;109411;1274;23452;-59
2022/04/09 01:13:49;;;;;;;5.40;3.60;;;;;;;4.76;76.59;98171.20;109400;1274;22936;-59
2022/04/09 01:16:17;;;;;;;6.50;3.30;;;;;;;4.83;76.83;98172.42;109306;1274;139182;-55
2022/04/09 01:18:46;;;;;;;7.00;3.20;;;;;;;4.90;76.64;98176.86;109331;1274;22455;-55
2022/04/09 01:21:34;;;;;;;;;;;;;;;4.99;76.66;98181.61;109225;1274;139742;-55
2022/04/09 01:24:04;;;;;;;6.40;3.00;;;;;;;5.06;76.37;98185.33;109332;1274;22413;-55
2022/04/09 01:26:35;;;;;;;5.70;3.70;;;;;;;5.13;76.34;98188.98;109416;1274;22433;-55
2022/04/09 01:29:27;;;;;;;10.40;3.30;;;;;;;5.21;75.90;98181.95;109256;1274;22478;-55
2022/04/09 01:31:55;;;;;;;8.10;3.30;;;;;;;5.25;75.64;98175.42;109357;1274;22880;-55
2022/04/09 01:34:23;;;;;;;6.90;2.50;;;;;;;5.29;75.78;98176.12;109295;1274;138780;-55
2022/04/09 01:36:52;;;;;;;4.80;2.40;;;;;;;5.35;75.74;98172.48;109335;1274;23263;-55
2022/04/09 01:39:20;;;;;;;5.60;3.10;;;;;;;5.41;75.72;98163.12;109236;1274;137990;-55
2022/04/09 01:41:48;;;;;;;5.50;2.90;;;;;;;5.47;75.52;98158.42;109204;1277;22254;-55
2022/04/09 01:44:19;;;;;;;5.70;2.60;;;;;;;5.54;74.98;98160.80;109415;1274;22459;-55
2022/04/09 01:46:48;;;;;;;4.90;2.60;;;;;;;5.62;74.91;98161.67;109215;1274;138372;-55
2022/04/09 01:49:17;;;;;;;7.60;3.70;;;;;;;5.69;74.75;98160.15;109438;1274;22419;-55
2022/04/09 01:51:49;;;;;;;6.00;3.80;;;;;;;5.75;74.29;98158.14;109104;1276;138928;-55
2022/04/09 01:54:19;;;;;;;5.20;2.60;;;;;;;5.81;74.09;98152.34;109374;1274;22521;-55
2022/04/09 01:56:47;;;;;;;5.10;2.80;;;;;;;5.86;73.90;98149.30;109316;1274;23460;-55
2022/04/09 01:59:15;;;;;;;5.80;2.70;;;;;;;5.90;73.54;98150.71;109253;1275;138058;-55
2022/04/09 02:01:47;;;;;;;7.10;3.40;;;;;;;5.95;73.38;98148.50;109428;1274;23523;-55
2022/04/09 02:04:17;;;;;;;5.80;3.10;;;;;;;5.99;73.54;98146.44;109237;1274;138838;-55
2022/04/09 02:06:45;;;;;;;6.90;3.10;;;;;;;6.04;73.13;98141.33;109364;1274;22584;-55
2022/04/09 02:09:13;;;;;;;5.90;2.70;;;;;;;6.09;73.04;98136.90;109220;1274;138446;-55
2022/04/09 02:11:42;;;;;;;6.20;3.10;;;;;;;6.14;72.77;98130.27;109296;1276;22460;-55
2022/04/09 02:14:12;;;;;;;7.90;2.90;;;;;;;6.20;72.61;98125.60;109292;1276;22462;-55
2022/04/09 02:16:41;;;;;;;6.90;2.80;;;;;;;6.25;72.34;98121.51;109289;1275;138786;-55
2022/04/09 02:21:41;;;;;;;5.00;3.00;;;;;;;6.36;72.05;98101.86;101877;1307;545378;-54
2022/04/09 02:24:13;;;;;;;5.10;2.90;;;;;;;6.39;71.59;98097.81;104217;1284;25131;-54
2022/04/09 02:26:42;;;;;;;4.50;2.70;;;;;;;6.43;71.54;98093.88;104210;1284;22591;-54
2022/04/09 02:29:11;;;;;;;6.60;3.00;;;;;;;6.45;71.06;98083.72;104214;1284;136884;-54
2022/04/09 02:31:43;;;;;;;4.40;2.40;;;;;;;6.48;70.98;98068.69;108370;1285;22437;-55
2022/04/09 02:34:13;;;;;;;5.60;3.10;;;;;;;6.50;70.41;98056.56;108212;1281;277604;-56
2022/04/09 02:36:41;;;;;;;8.40;3.20;;;;;;;6.53;70.23;98043.95;108958;1280;22528;-55
2022/04/09 02:39:12;;;;;;;6.80;3.60;;;;;;;6.56;69.83;98033.58;108547;1282;137823;-55
2022/04/09 02:41:40;;;;;;;5.60;3.00;;;;;;;6.60;70.04;98033.15;108643;1283;23056;-55
2022/04/09 02:44:08;;;;;;;5.10;3.20;;;;;;;6.62;69.82;98047.56;108939;1280;22443;-56
2022/04/09 02:46:37;;;;;;;7.40;3.10;;;;;;;6.64;69.73;98062.48;108624;1280;137406;-55
2022/04/09 02:49:06;;;;;;;7.50;3.10;;;;;;;6.67;69.68;98070.50;108721;1280;22440;-55
2022/04/09 02:51:34;;;;;;;4.40;2.90;;;;;;;6.69;69.29;98076.19;108548;1281;137695;-55
2022/04/09 02:54:02;;;;;;;4.40;3.30;;;;;;;6.72;69.39;98076.59;108687;1280;22445;-54
2022/04/09 02:56:33;;;;;;;5.80;3.40;;;;;;;6.74;69.18;98076.05;108972;1281;22529;-55
2022/04/09 02:59:01;;;;;;;8.00;3.20;;;;;;;6.75;68.86;98072.27;108507;1281;138020;-55
2022/04/09 03:01:31;;;;;;;8.40;3.60;;;;;;;6.75;68.96;98062.89;108718;1281;23269;-55
2022/04/09 03:04:05;;;;;;;4.80;3.50;;;;;;;6.72;69.14;98063.60;108712;1280;136628;-54
2022/04/09 03:06:33;;;;;;;6.10;3.70;;;;;;;6.69;69.08;98064.17;108674;1281;22223;-54
2022/04/09 03:09:03;;;;;;;5.00;3.20;;;;;;;6.65;69.01;98067.42;108806;1280;22926;-55
2022/04/09 03:11:31;;;;;;;7.50;3.70;;;;;;;6.60;69.16;98069.15;108828;1280;137402;-54
2022/04/09 03:14:00;;;;;;;9.10;3.70;;;;;;;6.56;69.40;98065.45;108958;1280;22432;-55
2022/04/09 03:16:28;;;;;;;10.30;3.40;;;;;;;6.51;69.51;98065.66;108705;1280;138072;-55
2022/04/09 03:19:10;;;;;;;6.30;3.70;;;;;;;6.47;69.65;98062.04;108716;1280;22564;-55
2022/04/09 03:21:39;;;;;;;7.60;3.20;;;;;;;6.43;69.54;98046.92;108675;1281;139086;-55
2022/04/09 03:24:08;;;;;;;6.30;3.70;;;;;;;6.39;69.69;98031.98;108651;1282;22454;-55
2022/04/09 03:26:37;;;;;;;5.50;3.40;;;;;;;6.36;69.76;98033.80;108693;1281;22516;-55
2022/04/09 03:29:06;;;;;;;6.80;3.70;;;;;;;6.34;70.03;98031.27;108848;1280;138352;-55
2022/04/09 03:31:35;;;;;;;5.20;3.00;;;;;;;6.34;69.88;98040.20;108665;1280;23445;-55
2022/04/09 03:34:04;;;;;;;7.20;3.80;;;;;;;6.34;70.33;98052.85;108439;1283;138611;-54
2022/04/09 03:36:47;;;;;;;5.50;3.00;;;;;;;6.34;70.39;98062.98;108774;1280;22542;-55
2022/04/09 03:39:16;;;;;;;4.70;2.80;;;;;;;6.35;70.83;98070.59;108541;1281;137749;-55
2022/04/09 03:41:44;;;;;;;6.40;3.00;;;;;;;6.36;71.31;98065.94;108660;1282;23150;-55
2022/04/09 03:44:33;;;;;;;5.60;3.00;;;;;;;6.39;71.32;98068.38;108757;1280;22405;-54
2022/04/09 03:47:03;;;;;;;6.20;3.20;;;;;;;6.42;71.29;98074.08;108530;1282;138619;-54
2022/04/09 03:49:33;;;;;;;9.30;5.10;;;;;;;6.43;71.49;98087.17;108739;1281;22532;-55
2022/04/09 03:52:01;;;;;;;13.10;6.60;;;;;;;6.44;71.59;98100.60;108614;1281;138707;-55
2022/04/09 03:54:32;;;;;;;10.70;6.60;;;;;;;6.40;72.17;98108.59;108581;1283;22444;-55
2022/04/09 03:57:00;;;;;;;11.50;6.60;;;;;;;6.35;72.38;98121.23;108579;1281;22449;-55
2022/04/09 03:59:39;;;;;;;12.20;6.60;;;;;;;6.25;73.19;98136.77;108580;1281;138541;-55
2022/04/09 04:02:07;;;;;;;9.70;6.70;;;;;;;6.14;73.64;98144.39;108913;1280;22458;-54
2022/04/09 04:04:51;;;;;;;9.70;5.70;;;;;;;6.03;74.13;98165.59;108668;1281;137497;-55
2022/04/09 04:07:23;;;;;;;11.60;5.70;;;;;;;6.00;74.40;98179.05;108687;1281;22437;-55
2022/04/09 04:09:51;;;;;;;11.10;6.30;;;;;;;6.00;75.02;98172.61;108976;1277;139622;-55
2022/04/09 04:12:20;;;;;;;11.10;6.10;;;;;;;6.03;75.43;98172.73;109078;1277;22444;-54
2022/04/09 04:15:08;;;;;;;12.40;5.90;;;;;;;6.06;75.80;98170.70;109060;1276;23032;-54
2022/04/09 04:17:39;;;;;;;12.50;7.10;;;;;;;6.08;75.91;98175.23;108927;1276;138593;-55
2022/04/09 04:20:28;;;;;;;12.70;7.60;;;;;;;6.09;76.15;98174.60;109071;1276;22462;-55
2022/04/09 04:22:58;;;;;;;13.80;7.80;;;;;;;6.13;76.39;98173.17;108947;1277;138534;-55
2022/04/09 04:25:38;;;;;;;11.20;6.60;;;;;;;6.16;76.32;98169.40;109066;1277;22258;-54
2022/04/09 04:28:06;;;;;;;11.80;6.70;;;;;;;6.20;76.40;98173.15;108896;1277;138258;-55
2022/04/09 04:30:35;;;;;;;15.80;8.80;;;;;;;6.24;76.51;98167.05;109063;1277;22538;-54
2022/04/09 04:33:04;;;;;;;12.70;5.90;;;;;;;6.29;76.01;98165.77;108936;1277;22519;-55
2022/04/09 04:35:38;;;;;;;8.90;4.60;;;;;;;6.33;75.91;98161.92;109062;1276;139091;-55
2022/04/09 04:38:08;;;;;;;9.00;5.10;;;;;;;6.37;75.50;98163.27;109247;1276;22411;-55
2022/04/09 04:40:37;;;;;;;10.60;6.30;;;;;;;6.44;75.03;98170.13;109042;1277;138499;-54
2022/04/09 04:43:07;;;;;;;19.00;9.20;;;;;;;6.49;74.68;98167.33;109030;1277;23278;-54
2022/04/09 04:45:35;;;;;;;10.80;6.20;;;;;;;6.54;74.46;98168.16;108940;1277;137975;-55
2022/04/09 04:48:09;;;;;;;9.10;4.30;;;;;;;6.60;74.07;98175.77;109068;1277;22492;-54
2022/04/09 04:50:37;;;;;;;11.90;4.90;;;;;;;6.65;73.48;98173.98;108983;1277;23270;-54
2022/04/09 04:53:08;;;;;;;6.70;3.80;;;;;;;6.71;73.18;98167.46;108975;1276;137260;-55
2022/04/09 04:55:40;;;;;;;9.50;4.70;;;;;;;6.76;72.75;98163.32;109224;1276;22518;-54
2022/04/09 04:58:21;;;;;;;14.00;6.00;;;;;;;6.82;73.05;98151.30;109113;1276;138216;-55
2022/04/09 05:01:16;;;;;;;10.20;5.30;;;;;;;6.85;72.36;98146.59;109184;1275;23190;-55
2022/04/09 05:03:50;;;;;;;11.10;3.70;;;;;;;6.86;72.23;98129.39;109093;1277;138276;-55
2022/04/09 05:06:48;;;;;;;7.00;3.60;;;;;;;6.88;71.72;98122.95;109185;1276;22512;-55
2022/04/09 05:09:19;;;;;;;5.10;3.40;;;;;;;6.90;71.58;98112.45;109049;1277;137617;-55
2022/04/09 05:11:51;;;;;;;6.20;3.10;;;;;;;6.92;71.52;98108.40;109161;1277;22424;-55
2022/04/09 05:14:23;;;;;;;4.80;3.00;;;;;;;6.94;71.36;98115.20;109080;1278;22490;-55
2022/04/09 05:16:54;;;;;;;8.00;5.50;;;;;;;6.94;70.95;98108.92;109075;1277;138601;-55
2022/04/09 05:19:23;;;;;;;4.80;2.90;;;;;;;6.97;71.09;98097.12;109162;1277;22518;-55
2022/04/09 05:21:58;;;;;;;5.80;3.40;;;;;;;6.98;71.13;98089.33;109008;1276;138524;-55
2022/04/09 05:24:28;;;;;;;6.90;3.40;;;;;;;7.00;71.02;98078.84;109125;1276;23254;-55
2022/04/09 05:26:57;;;;;;;4.30;2.80;;;;;;;7.02;71.12;98067.84;109107;1276;23093;-54
2022/04/09 05:29:26;;;;;;;4.70;2.80;;;;;;;7.04;71.00;98062.70;109015;1276;138149;-55
2022/04/09 05:31:55;;;;;;;6.60;3.00;;;;;;;7.07;70.30;98063.98;109073;1277;22435;-54
2022/04/09 05:34:23;;;;;;;5.70;2.60;;;;;;;7.09;70.61;98062.14;108935;1277;138958;-55
2022/04/09 05:36:52;;;;;;;6.00;2.30;;;;;;;7.12;70.75;98056.51;109142;1277;22258;-55
2022/04/09 05:39:20;;;;;;;5.00;3.10;;;;;;;7.16;70.67;98055.48;108985;1276;137892;-55
2022/04/09 05:41:53;;;;;;;5.50;3.10;;;;;;;7.20;70.49;98051.81;109033;1277;22469;-55
2022/04/09 05:44:22;;;;;;;5.70;3.00;;;;;;;7.22;70.19;98053.04;109220;1276;22539;-55
2022/04/09 05:46:50;;;;;;;7.10;2.70;;;;;;;7.26;70.10;98050.70;108996;1276;137887;-54
2022/04/09 05:49:20;;;;;;;5.90;2.70;;;;;;;7.27;70.16;98050.76;109193;1276;22563;-54
2022/04/09 05:51:50;;;;;;;7.40;3.80;;;;;;;7.28;69.96;98043.71;109121;1275;139073;-54
2022/04/09 05:54:19;;;;;;;5.20;3.20;;;;;;;7.30;69.98;98042.64;109039;1277;22498;-55
2022/04/09 05:56:50;;;;;;;5.90;3.00;;;;;;;7.32;69.55;98040.52;109232;1277;22258;-55
2022/04/09 05:59:19;;;;;;;5.50;2.70;;;;;;;7.33;69.70;98038.84;109067;1276;137180;-55
2022/04/09 06:01:50;;;;;;;5.70;3.00;;;;;;;7.34;69.42;98035.65;109189;1276;22599;-54
2022/04/09 06:04:21;;;;;;;5.60;2.90;;;;;;;7.35;69.81;98030.10;108975;1276;138823;-55
2022/04/09 06:06:51;;;;;;;5.00;3.20;;;;;;;7.38;69.62;98020.23;109140;1276;23460;-55
2022/04/09 06:09:23;;;;;;;6.40;2.80;;;;;;;7.40;69.71;98011.94;109114;1276;137745;-55
2022/04/09 06:11:54;;;;;;;16.00;10.80;;;;;;;7.42;69.61;98005.81;109195;1274;22554;-55
2022/04/09 06:14:36;;;;;;;8.50;4.40;;;;;;;7.44;69.81;98004.84;109186;1276;22625;-55
2022/04/09 06:17:06;;;;;;;7.90;3.10;;;;;;;7.48;69.38;98008.80;109082;1276;139376;-55
2022/04/09 06:19:40;;;;;;;5.70;3.80;;;;;;;7.49;69.14;98002.29;109118;1276;23149;-55
2022/04/09 06:22:09;;;;;;;4.30;2.80;;;;;;;7.51;69.35;98001.45;109051;1275;139099;-55
2022/04/09 06:24:38;;;;;;;9.10;3.20;;;;;;;7.53;69.47;97994.84;109281;1276;23180;-55
2022/04/09 06:27:06;;;;;;;5.90;2.80;;;;;;;7.55;69.43;97994.94;109111;1276;22422;-55
2022/04/09 06:29:37;;;;;;;4.20;2.90;;;;;;;7.58;69.54;97989.19;109050;1276;138346;-55
2022/04/09 06:32:06;;;;;;;7.60;3.00;;;;;;;7.61;69.45;97988.64;109108;1276;23352;-55
2022/04/09 06:34:34;;;;;;;6.30;3.00;;;;;;;7.64;69.61;97986.84;109020;1277;138033;-55
2022/04/09 06:37:06;;;;;;;4.70;2.50;;;;;;;7.68;69.98;97986.77;108901;1279;22447;-55
2022/04/09 06:39:38;;;;;;;6.30;3.80;;;;;;;7.72;69.95;97983.50;108929;1277;137426;-55
2022/04/09 06:42:07;;;;;;;7.00;3.10;;;;;;;7.76;69.75;97982.84;109098;1278;22433;-55
2022/04/09 06:44:53;;;;;;;7.50;2.80;;;;;;;7.84;69.59;97983.83;109030;1278;23227;-55
2022/04/09 06:47:22;;;;;;;4.80;3.10;;;;;;;7.90;70.02;97985.71;109005;1276;139909;-55
2022/04/09 06:50:00;;;;;;;6.10;3.30;;;;;;;7.99;70.09;97986.47;109107;1276;22547;-55
2022/04/09 06:52:32;;;;;;;8.00;4.10;;;;;;;8.08;69.96;97989.63;109100;1277;139297;-55
2022/04/09 06:55:09;;;;;;;7.90;4.70;;;;;;;8.18;70.03;97989.52;109072;1278;23037;-55
2022/04/09 06:57:41;;;;;;;10.50;6.40;;;;;;;8.25;69.92;97986.16;109082;1276;138432;-55
2022/04/09 07:00:12;;;;;;;5.40;3.20;;;;;;;8.33;69.71;97983.06;108965;1278;22405;-55
2022/04/09 07:02:40;;;;;;;4.50;2.90;;;;;;;8.41;69.30;97985.27;108954;1276;22452;-55
2022/04/09 07:05:09;;;;;;;6.10;3.20;;;;;;;8.48;69.04;97986.02;109140;1276;137156;-55
2022/04/09 07:07:37;;;;;;;6.10;2.60;;;;;;;8.53;68.41;97983.95;109275;1276;23280;-55
2022/04/09 07:10:10;;;;;;;3.50;2.30;;;;;;;8.59;68.59;97986.69;109182;1276;138525;-55
2022/04/09 07:12:38;;;;;;;5.70;2.60;;;;;;;8.64;68.54;97990.23;109296;1276;22928;-55
2022/04/09 07:15:07;;;;;;;5.20;2.50;;;;;;;8.70;68.29;97991.16;109249;1276;22397;-55
2022/04/09 07:17:41;;;;;;;5.90;2.60;;;;;;;8.76;68.40;97989.61;109145;1276;138294;-59
2022/04/09 07:20:09;;;;;;;6.80;2.90;;;;;;;8.82;68.22;97987.75;109090;1277;22273;-59
2022/04/09 07:22:57;;;;;;;5.50;3.60;;;;;;;8.90;68.34;97989.16;108921;1279;138061;-59
2022/04/09 07:25:26;;;;;;;6.60;2.60;;;;;;;8.97;68.31;97985.45;109107;1277;22447;-59
2022/04/09 07:27:54;;;;;;;5.60;2.80;;;;;;;9.02;67.84;97983.94;109017;1278;138635;-59
2022/04/09 07:30:22;;;;;;;4.70;2.90;;;;;;;9.10;67.52;97986.64;109122;1278;22516;-59
2022/04/09 07:32:50;;;;;;;8.40;3.80;;;;;;;9.18;67.19;97983.05;108997;1279;22437;-59
2022/04/09 07:35:19;;;;;;;9.90;4.30;;;;;;;9.26;67.00;97979.05;108971;1279;137903;-58
2022/04/09 07:37:53;;;;;;;8.00;5.00;;;;;;;9.35;66.76;97971.20;109102;1277;22480;-58
2022/04/09 07:40:24;;;;;;;8.30;4.10;;;;;;;9.43;66.33;97970.40;108981;1278;137236;-58
2022/04/09 07:42:53;;;;;;;6.10;3.50;;;;;;;9.51;66.19;97970.25;109085;1278;23592;-58
2022/04/09 07:45:22;;;;;;;5.70;3.20;;;;;;;9.58;65.74;97966.08;108597;1278;137524;-55
2022/04/09 07:47:54;;;;;;;19.30;9.40;;;;;;;9.67;65.71;97962.62;109011;1279;23289;-54
2022/04/09 07:50:22;;;;;;;15.10;8.50;;;;;;;9.74;65.14;97966.73;109002;1279;22399;-54
2022/04/09 07:52:50;;;;;;;11.70;5.70;;;;;;;9.79;64.99;97964.44;108998;1278;138188;-54
2022/04/09 07:55:18;;;;;;;7.00;4.30;;;;;;;9.84;64.61;97964.14;109078;1277;23184;-54
2022/04/09 07:57:50;;;;;;;7.40;4.90;;;;;;;9.89;64.66;97959.46;109035;1277;138503;-54
2022/04/09 08:00:19;;;;;;;6.30;3.90;;;;;;;9.92;64.59;97955.35;109092;1278;22501;-54
2022/04/09 08:02:48;;;;;;;8.80;3.90;;;;;;;9.95;64.27;97955.85;109045;1279;22460;-54
2022/04/09 08:05:18;;;;;;;7.60;4.60;;;;;;;9.99;64.21;97953.56;108971;1276;137233;-54
2022/04/09 08:08:04;;;;;;;9.20;5.40;;;;;;;10.03;64.05;97952.64;109124;1278;22538;-54
2022/04/09 08:10:39;;;;;;;6.60;3.80;;;;;;;10.06;63.81;97955.77;108949;1279;138701;-54
2022/04/09 08:13:27;;;;;;;7.20;4.40;;;;;;;10.09;63.70;97957.58;109019;1277;22456;-54
2022/04/09 08:15:55;;;;;;;9.60;4.90;;;;;;;10.12;63.86;97953.92;108970;1278;137988;-54
2022/04/09 08:18:23;;;;;;;8.40;4.30;;;;;;;10.14;64.00;97949.87;109029;1279;23215;-54
2022/04/09 08:21:07;;;;;;;7.80;4.70;;;;;;;10.17;63.80;97946.95;109145;1278;23302;-54
2022/04/09 08:23:35;;;;;;;3.30;2.40;;;;;;;10.19;64.00;97949.39;109070;1277;137115;-54
2022/04/09 08:26:03;;;;;;;12.40;2.10;;;;;;;10.22;63.96;97944.69;109181;1277;22461;-54
2022/04/09 08:28:36;;;;;;;5.40;2.20;;;;;;;10.25;64.09;97945.45;109049;1277;139184;-54
2022/04/09 08:31:04;;;;;;;4.60;2.70;;;;;;;10.26;64.26;97946.02;109170;1277;22400;-54
2022/04/09 08:33:33;;;;;;;4.20;2.10;;;;;;;10.30;64.27;97951.75;109093;1278;137414;-54
2022/04/09 08:36:02;;;;;;;4.20;2.30;;;;;;;10.33;63.95;97949.65;109080;1278;22382;-54
2022/04/09 08:38:31;;;;;;;6.00;2.00;;;;;;;10.33;63.67;97946.10;109224;1277;22319;-55
2022/04/09 08:41:03;;;;;;;5.70;2.80;;;;;;;10.34;63.65;97948.21;109109;1276;137348;-54
2022/04/09 08:43:32;;;;;;;5.90;2.20;;;;;;;10.36;63.96;97947.92;109224;1277;23160;-54
2022/04/09 08:46:06;;;;;;;4.50;2.10;;;;;;;10.37;63.84;97949.42;109101;1277;137515;-54
2022/04/09 08:48:36;;;;;;;5.60;2.40;;;;;;;10.39;63.90;97952.80;109191;1277;23235;-54
2022/04/09 08:51:04;;;;;;;3.80;2.00;;;;;;;10.42;63.91;97953.73;109179;1277;22435;-54
2022/04/09 08:53:55;;;;;;;4.80;2.30;;;;;;;10.44;63.98;97954.64;109009;1277;138046;-54
2022/04/09 08:56:23;;;;;;;6.10;2.30;;;;;;;10.46;63.80;97957.44;109058;1278;23070;-54
2022/04/09 08:58:52;;;;;;;4.50;2.00;;;;;;;10.48;63.70;97954.42;109080;1277;137789;-54
2022/04/09 09:01:40;;;;;;;9.10;3.30;;;;;;;10.48;63.83;97957.86;109224;1277;22503;-54
2022/04/09 09:04:09;;;;;;;8.20;3.80;;;;;;;10.48;63.93;97958.66;109099;1277;137573;-55
2022/04/09 09:06:40;;;;;;;5.70;3.60;;;;;;;10.49;63.85;97962.14;109215;1276;22434;-54
2022/04/09 09:09:14;;;;;;;5.30;2.50;;;;;;;10.49;64.18;97962.42;109202;1277;23171;-55
2022/04/09 09:11:45;;;;;;;6.60;2.70;;;;;;;10.48;64.21;97958.34;108891;1277;137666;-54
2022/04/09 09:14:24;;;;;;;6.40;3.00;;;;;;;10.48;64.19;97954.48;109147;1277;23331;-54
2022/04/09 09:16:59;;;;;;;6.50;3.00;;;;;;;10.48;64.82;97950.45;105934;1277;138116;-54
2022/04/09 09:19:40;;;;;;;5.10;2.20;;;;;;;10.49;65.20;97952.56;109103;1278;22531;-55
2022/04/09 09:22:08;;;;;;;8.60;3.30;;;;;;;10.51;65.04;97950.52;109066;1278;138140;-54
2022/04/09 09:25:07;;;;;;;6.80;3.00;;;;;;;10.53;65.38;97949.86;109104;1278;23193;-54
2022/04/09 09:27:40;;;;;;;6.80;2.30;;;;;;;10.56;65.73;97949.77;109081;1278;137871;-54
2022/04/09 09:30:11;;;;;;;4.60;2.50;;;;;;;10.58;65.73;97946.31;109229;1277;22440;-54
2022/04/09 09:33:06;;;;;;;4.80;2.90;;;;;;;10.60;66.27;97946.55;109193;1277;22497;-54
2022/04/09 09:35:59;;;;;;;5.90;3.40;;;;;;;10.62;66.48;97945.91;109151;1278;137007;-54
2022/04/09 09:38:29;;;;;;;8.30;2.90;;;;;;;10.65;66.95;97943.65;109192;1277;23088;-54
2022/04/09 09:40:57;;;;;;;5.00;2.30;;;;;;;10.65;66.90;97938.05;109088;1278;138126;-54
2022/04/09 09:43:37;;;;;;;7.40;2.50;;;;;;;10.66;66.66;97933.61;109199;1278;23694;-54
2022/04/09 09:46:07;;;;;;;8.30;3.30;;;;;;;10.67;66.67;97926.67;109047;1277;139951;-54
2022/04/09 09:48:36;;;;;;;6.70;2.80;;;;;;;10.70;67.03;97921.49;109214;1277;22401;-54
2022/04/09 09:51:04;;;;;;;9.50;2.50;;;;;;;10.72;67.61;97922.22;109173;1277;22520;-54
2022/04/09 09:53:34;;;;;;;5.00;2.40;;;;;;;10.75;67.36;97911.17;109110;1278;138032;-54
2022/04/09 09:56:04;;;;;;;4.90;2.40;;;;;;;10.79;67.06;97903.97;109201;1277;22594;-54
2022/04/09 09:58:32;;;;;;;5.00;2.30;;;;;;;10.84;66.74;97900.48;108965;1278;137605;-54
2022/04/09 10:01:16;;;;;;;4.40;2.30;;;;;;;10.88;65.95;97884.89;109152;1277;22561;-54
2022/04/09 10:03:44;;;;;;;8.50;2.60;;;;;;;10.91;65.77;97881.24;109092;1277;139248;-54
2022/04/09 10:06:13;;;;;;;5.60;2.50;;;;;;;10.94;65.44;97877.02;109073;1277;22380;-54
2022/04/09 10:09:02;;;;;;;;;;;;;;;10.95;65.53;97879.50;109213;1277;22469;-54
2022/04/09 10:11:30;;;;;;;3.80;1.80;;;;;;;10.94;65.31;97896.04;109108;1277;124418;-54
2022/04/09 10:14:21;;;;;;;5.90;3.50;;;;;;;10.93;65.20;97902.98;109037;1277;22445;-54
2022/04/09 10:16:52;;;;;;;7.80;4.70;;;;;;;10.93;65.52;97899.55;109104;1277;137756;-54
2022/04/09 10:19:26;;;;;;;13.70;7.90;;;;;;;10.93;65.52;97892.43;109151;1277;22544;-55
2022/04/09 10:21:55;;;;;;;32.00;19.30;;;;;;;10.94;65.51;97878.85;108954;1277;138594;-54
2022/04/09 10:24:26;;;;;;;40.40;23.10;;;;;;;10.95;65.52;97873.99;108975;1279;23261;-54
2022/04/09 10:26:56;;;;;;;11.70;6.70;;;;;;;10.95;65.50;97871.36;105873;1277;22765;-54
2022/04/09 10:29:25;;;;;;;9.00;4.80;;;;;;;10.96;65.02;97876.14;108814;1279;138529;-54
2022/04/09 10:31:53;;;;;;;6.70;3.00;;;;;;;10.96;65.19;97877.00;109197;1277;23470;-54
2022/04/09 10:34:23;;;;;;;7.30;3.20;;;;;;;10.97;65.00;97876.91;109041;1277;137600;-54
2022/04/09 10:36:54;;;;;;;7.10;3.00;;;;;;;10.98;64.45;97878.27;109227;1277;23628;-54
2022/04/09 10:39:29;;;;;;;5.80;2.60;;;;;;;10.98;64.30;97884.21;109229;1277;22269;-54
2022/04/09 10:41:57;;;;;;;3.90;2.30;;;;;;;10.98;64.52;97879.63;109115;1277;138731;-54
2022/04/09 10:44:41;;;;;;;5.10;2.60;;;;;;;10.99;64.42;97875.70;109222;1277;22255;-54
2022/04/09 10:47:14;;;;;;;6.20;2.40;;;;;;;10.99;64.66;97866.42;109054;1277;138231;-54
2022/04/09 10:50:05;;;;;;;6.30;2.80;;;;;;;10.98;64.63;97869.71;109088;1277;22459;-54
2022/04/09 10:52:34;;;;;;;6.60;2.50;;;;;;;10.98;64.73;97864.91;108979;1277;138397;-54
2022/04/09 10:55:20;;;;;;;6.30;2.50;;;;;;;10.99;64.50;97857.55;109205;1277;22433;-54
2022/04/09 10:57:51;;;;;;;3.50;2.40;;;;;;;11.00;64.48;97852.78;109090;1277;139304;-54
2022/04/09 11:00:23;;;;;;;4.80;2.60;;;;;;;11.01;64.33;97852.44;109217;1276;22459;-54
2022/04/09 11:03:28;;;;;;;5.80;2.50;;;;;;;11.03;64.38;97850.95;109129;1277;22470;-54
2022/04/09 11:06:40;;;;;;;12.00;4.00;;;;;;;11.05;64.52;97848.91;108999;1278;136934;-54
2022/04/09 11:09:09;;;;;;;6.50;3.60;;;;;;;11.07;64.64;97839.75;109237;1278;22534;-55
2022/04/09 11:11:37;;;;;;;18.10;5.80;;;;;;;11.10;64.18;97835.23;109019;1278;139267;-54
2022/04/09 11:14:05;;;;;;;6.60;4.10;;;;;;;11.15;64.26;97831.58;109197;1277;22421;-54
2022/04/09 11:16:35;;;;;;;5.60;2.90;;;;;;;11.18;64.17;97831.40;108951;1278;138004;-55
2022/04/09 11:19:03;;;;;;;7.00;3.40;;;;;;;11.21;64.21;97829.61;109252;1277;22500;-54
2022/04/09 11:21:31;;;;;;;5.10;3.10;;;;;;;11.24;63.89;97828.55;109232;1277;22487;-54
2022/04/09 11:24:05;;;;;;;8.40;3.40;;;;;;;11.27;63.92;97828.38;109012;1277;138857;-54
2022/04/09 11:26:34;;;;;;;14.60;8.00;;;;;;;11.29;63.90;97834.06;109223;1277;22408;-54
2022/04/09 11:29:10;;;;;;;15.80;8.60;;;;;;;11.32;64.02;97848.23;108948;1277;139256;-54
2022/04/09 11:31:46;;;;;;;12.20;5.80;;;;;;;11.34;63.78;97854.98;109196;1277;22514;-54
2022/04/09 11:34:14;;;;;;;18.10;11.00;;;;;;;11.36;64.45;97862.30;108961;1278;138075;-54
2022/04/09 11:36:44;;;;;;;15.70;8.10;;;;;;;11.33;65.59;97875.97;109204;1277;22497;-54
2022/04/09 11:39:12;;;;;;;19.80;11.40;;;;;;;11.28;65.78;97891.51;108912;1280;22582;-55
2022/04/09 11:41:40;;;;;;;27.10;16.20;;;;;;;11.23;65.78;97888.78;108960;1277;140381;-55
2022/04/09 11:44:08;;;;;;;23.30;14.50;;;;;;;11.21;65.61;97885.61;109016;1277;22444;-56
2022/04/09 11:46:43;;;;;;;58.50;32.20;;;;;;;11.19;65.66;97903.08;109141;1277;141979;-54
2022/04/09 11:49:11;;;;;;;58.30;30.40;;;;;;;11.18;65.93;97905.39;109226;1277;22514;-55
2022/04/09 11:51:40;;;;;;;20.40;11.70;;;;;;;11.17;66.06;97886.92;108890;1278;139816;-55